createdAt,value
2023-04-10T00:02:17.185Z,5.65
2023-04-10T00:04:46.028Z,5.32
2023-04-10T00:07:15.742Z,5.68
2023-04-10T00:09:44.067Z,5.65
2023-04-10T00:12:12.438Z,5.38
2023-04-10T00:14:40.885Z,6.70
2023-04-10T00:17:09.190Z,7.13
2023-04-10T00:19:37.504Z,6.88
2023-04-10T00:22:06.175Z,6.10
2023-04-10T00:24:36.005Z,6.47
2023-04-10T00:27:04.713Z,5.63
2023-04-10T00:29:33.190Z,5.18
2023-04-10T00:32:02.591Z,4.72
2023-04-10T00:34:31.248Z,4.78
2023-04-10T00:37:00.624Z,4.68
2023-04-10T00:39:29.454Z,5.35
2023-04-10T00:41:59.681Z,4.60
2023-04-10T00:44:28.221Z,5.00
2023-04-10T00:46:56.437Z,4.97
2023-04-10T00:49:24.664Z,4.75
2023-04-10T00:51:53.469Z,5.00
2023-04-10T00:54:21.996Z,4.60
2023-04-10T00:56:51.140Z,3.75
2023-04-10T00:59:21.146Z,4.57
2023-04-10T01:01:49.434Z,4.22
2023-04-10T01:04:18.116Z,4.80
2023-04-10T01:07:00.633Z,4.35
2023-04-10T01:09:42.389Z,4.85
2023-04-10T01:12:32.658Z,4.47
2023-04-10T01:15:10.666Z,4.22
2023-04-10T01:17:47.926Z,4.75
2023-04-10T01:20:23.553Z,4.80
2023-04-10T01:23:43.123Z,5.45
2023-04-10T01:26:13.854Z,4.57
2023-04-10T01:29:05.517Z,4.88
2023-04-10T01:31:42.794Z,5.40
2023-04-10T01:34:18.283Z,5.40
2023-04-10T01:36:52.654Z,5.35
2023-04-10T01:39:23.741Z,6.22
2023-04-10T01:41:55.093Z,5.60
2023-04-10T01:44:35.468Z,4.93
2023-04-10T01:47:06.332Z,5.25
2023-04-10T01:49:35.582Z,5.38
2023-04-10T01:52:06.901Z,5.30
2023-04-10T01:54:36.561Z,5.15
2023-04-10T01:57:06.484Z,5.57
2023-04-10T01:59:44.156Z,5.25
2023-04-10T02:02:12.727Z,5.60
2023-04-10T02:04:41.209Z,5.53
2023-04-10T02:07:14.846Z,5.82
2023-04-10T02:09:52.660Z,5.60
2023-04-10T02:12:29.857Z,6.03
2023-04-10T02:15:03.547Z,5.38
2023-04-10T02:17:32.647Z,5.80
2023-04-10T02:20:01.605Z,5.88
2023-04-10T02:22:30.033Z,5.55
2023-04-10T02:25:00.459Z,6.80
2023-04-10T02:27:30.520Z,7.60
2023-04-10T02:30:03.214Z,7.40
2023-04-10T02:32:35.765Z,6.60
2023-04-10T02:35:04.428Z,6.50
2023-04-10T02:37:33.239Z,6.15
2023-04-10T02:40:03.266Z,6.20
2023-04-10T02:42:39.812Z,8.48
2023-04-10T02:45:11.036Z,8.30
2023-04-10T02:47:44.023Z,6.57
2023-04-10T02:50:12.929Z,7.47
2023-04-10T02:52:44.684Z,7.55
2023-04-10T02:55:12.941Z,7.07
2023-04-10T02:57:42.759Z,6.88
2023-04-10T03:00:14.443Z,6.88
2023-04-10T03:03:12.019Z,6.85
2023-04-10T03:05:49.273Z,7.30
2023-04-10T03:08:21.052Z,7.38
2023-04-10T03:10:49.632Z,7.45
2023-04-10T03:13:18.251Z,6.78
2023-04-10T03:15:48.148Z,7.05
2023-04-10T03:18:16.425Z,7.75
2023-04-10T03:20:47.140Z,6.85
2023-04-10T03:23:15.724Z,7.18
2023-04-10T03:25:44.240Z,7.45
2023-04-10T03:28:12.889Z,7.38
2023-04-10T03:30:41.356Z,7.47
2023-04-10T03:33:11.966Z,7.30
2023-04-10T03:35:40.250Z,7.30
2023-04-10T03:38:08.931Z,7.80
2023-04-10T03:40:37.736Z,7.85
2023-04-10T03:43:08.148Z,7.78
2023-04-10T03:45:36.851Z,7.50
2023-04-10T03:48:05.393Z,7.70
2023-04-10T03:50:43.530Z,6.75
2023-04-10T03:53:11.710Z,7.05
2023-04-10T03:55:41.033Z,7.45
2023-04-10T03:58:09.342Z,7.32
2023-04-10T04:00:39.103Z,7.72
2023-04-10T04:03:19.085Z,7.10
2023-04-10T04:06:24.057Z,7.22
2023-04-10T04:09:25.216Z,7.43
2023-04-10T04:12:13.646Z,7.43
2023-04-10T04:14:43.130Z,7.60
2023-04-10T04:17:25.133Z,7.25
2023-04-10T04:20:16.055Z,7.90
2023-04-10T04:23:02.633Z,8.65
2023-04-10T04:25:52.627Z,8.50
2023-04-10T04:28:20.964Z,8.25
2023-04-10T04:31:08.300Z,9.35
2023-04-10T04:33:52.132Z,7.95
2023-04-10T04:36:46.831Z,8.30
2023-04-10T04:39:27.434Z,8.23
2023-04-10T04:42:07.577Z,8.48
2023-04-10T04:44:35.673Z,7.65
2023-04-10T04:47:24.287Z,8.10
2023-04-10T04:50:09.456Z,8.35
2023-04-10T04:52:56.375Z,8.27
2023-04-10T04:55:46.185Z,7.45
2023-04-10T04:58:26.391Z,8.50
2023-04-10T05:01:32.854Z,8.25
2023-04-10T05:04:20.610Z,9.10
2023-04-10T05:07:18.551Z,7.85
2023-04-10T05:10:00.579Z,8.32
2023-04-10T05:12:48.881Z,8.60
2023-04-10T05:15:25.007Z,8.93
2023-04-10T05:18:08.284Z,9.15
2023-04-10T05:20:56.787Z,9.52
2023-04-10T05:24:01.888Z,9.00
2023-04-10T05:26:48.697Z,8.88
2023-04-10T05:29:34.381Z,9.20
2023-04-10T05:32:28.812Z,9.88
2023-04-10T05:35:03.990Z,9.23
2023-04-10T05:37:42.037Z,10.15
2023-04-10T05:40:32.921Z,9.20
2023-04-10T05:43:30.440Z,9.00
2023-04-10T05:46:18.476Z,9.30
2023-04-10T05:49:05.681Z,9.73
2023-04-10T05:51:39.989Z,9.15
2023-04-10T05:54:26.771Z,10.32
2023-04-10T05:57:09.561Z,9.65
2023-04-10T06:00:18.202Z,9.30
2023-04-10T06:03:06.718Z,8.60
2023-04-10T06:05:41.419Z,7.28
2023-04-10T06:08:09.760Z,8.07
2023-04-10T06:10:37.963Z,7.63
2023-04-10T06:13:07.204Z,7.97
2023-04-10T06:15:37.068Z,7.55
2023-04-10T06:18:06.952Z,7.40
2023-04-10T06:20:35.217Z,7.35
2023-04-10T06:23:07.183Z,6.70
2023-04-10T06:25:35.804Z,6.85
2023-04-10T06:28:03.999Z,7.50
2023-04-10T06:30:34.571Z,6.82
2023-04-10T06:33:03.305Z,7.18
2023-04-10T06:35:35.832Z,7.35
2023-04-10T06:38:05.190Z,6.90
2023-04-10T06:40:36.442Z,6.97
2023-04-10T06:43:04.629Z,5.93
2023-04-10T06:45:38.570Z,6.32
2023-04-10T06:48:07.576Z,6.00
2023-04-10T06:50:37.114Z,6.32
2023-04-10T06:53:05.296Z,6.32
2023-04-10T06:55:33.547Z,6.18
2023-04-10T07:00:31.498Z,5.75
2023-04-10T07:02:59.827Z,5.65
2023-04-10T07:05:28.271Z,5.85
2023-04-10T07:07:57.782Z,5.57
2023-04-10T07:10:26.191Z,6.68
2023-04-10T07:12:54.609Z,5.57
2023-04-10T07:15:22.781Z,5.55
2023-04-10T07:17:51.039Z,5.50
2023-04-10T07:20:19.482Z,6.00
2023-04-10T07:22:47.679Z,5.80
2023-04-10T07:25:18.352Z,6.32
2023-04-10T07:27:46.611Z,5.45
2023-04-10T07:30:15.129Z,6.18
2023-04-10T07:32:43.630Z,6.20
2023-04-10T07:35:11.998Z,5.60
2023-04-10T07:37:40.772Z,5.75
2023-04-10T07:40:11.198Z,6.00
2023-04-10T07:42:40.702Z,5.82
2023-04-10T07:45:10.950Z,5.68
2023-04-10T07:47:39.187Z,6.25
2023-04-10T07:50:10.457Z,5.57
2023-04-10T07:52:38.730Z,5.50
2023-04-10T07:55:07.957Z,5.13
2023-04-10T07:57:37.246Z,5.72
2023-04-10T08:00:08.715Z,4.88
2023-04-10T08:02:44.373Z,5.22
2023-04-10T08:05:12.811Z,5.13
2023-04-10T08:07:41.069Z,4.63
2023-04-10T08:10:10.637Z,4.10
2023-04-10T08:12:38.847Z,4.03
2023-04-10T08:15:10.036Z,3.72
2023-04-10T08:17:38.407Z,3.80
2023-04-10T08:20:08.712Z,3.63
2023-04-10T08:22:36.860Z,3.63
2023-04-10T08:25:06.258Z,3.45
2023-04-10T08:27:34.523Z,3.90
2023-04-10T08:30:02.711Z,3.92
2023-04-10T08:32:32.330Z,3.83
2023-04-10T08:35:00.673Z,3.20
2023-04-10T08:37:28.963Z,3.90
2023-04-10T08:39:57.167Z,3.47
2023-04-10T08:42:25.827Z,6.20
2023-04-10T08:44:54.199Z,4.07
2023-04-10T08:47:25.019Z,3.70
2023-04-10T08:49:58.147Z,3.42
2023-04-10T08:52:31.117Z,3.42
2023-04-10T08:55:03.655Z,3.58
2023-04-10T09:02:48.580Z,3.40
2023-04-10T09:05:18.545Z,3.17
2023-04-10T09:07:46.715Z,3.70
2023-04-10T09:10:14.854Z,4.20
2023-04-10T09:12:47.029Z,4.63
2023-04-10T09:15:16.669Z,6.57
2023-04-10T09:18:05.938Z,3.85
2023-04-10T09:20:35.986Z,3.75
2023-04-10T09:23:21.977Z,3.25
2023-04-10T09:25:51.242Z,3.28
2023-04-10T09:28:19.632Z,3.53
2023-04-10T09:30:47.949Z,3.25
2023-04-10T09:33:28.483Z,3.30
2023-04-10T09:36:00.987Z,3.95
2023-04-10T09:41:09.051Z,3.50
2023-04-10T09:43:38.918Z,3.72
2023-04-10T09:46:07.954Z,3.70
2023-04-10T09:48:36.268Z,2.80
2023-04-10T09:51:06.254Z,3.05
2023-04-10T09:53:50.821Z,4.00
2023-04-10T09:56:19.779Z,3.33
2023-04-10T09:58:48.653Z,3.83
2023-04-10T10:01:17.742Z,3.50
2023-04-10T10:03:46.653Z,3.50
2023-04-10T10:06:16.881Z,3.58
2023-04-10T10:08:46.179Z,4.03
2023-04-10T10:11:19.102Z,5.70
2023-04-10T10:13:53.810Z,3.45
2023-04-10T10:16:28.174Z,2.80
2023-04-10T10:19:02.393Z,3.00
2023-04-10T10:21:34.004Z,3.40
2023-04-10T10:24:04.014Z,3.40
2023-04-10T10:26:34.901Z,3.15
2023-04-10T10:29:06.857Z,3.25
2023-04-10T10:31:37.185Z,2.88
2023-04-10T10:34:08.967Z,2.90
2023-04-10T10:36:41.546Z,2.80
2023-04-10T10:39:34.242Z,2.92
2023-04-10T10:42:12.242Z,2.85
2023-04-10T10:44:49.784Z,2.90
2023-04-10T10:47:21.571Z,2.88
2023-04-10T10:49:55.436Z,3.10
2023-04-10T10:52:46.858Z,3.22
2023-04-10T10:55:37.606Z,2.97
2023-04-10T10:58:07.813Z,3.10
2023-04-10T11:01:16.255Z,3.30
2023-04-10T11:03:45.815Z,3.15
2023-04-10T11:06:17.046Z,3.00
2023-04-10T11:08:48.554Z,3.75
2023-04-10T11:11:19.962Z,3.50
2023-04-10T11:14:19.921Z,3.08
2023-04-10T11:16:49.289Z,3.40
2023-04-10T11:19:23.573Z,2.90
2023-04-10T11:22:08.268Z,3.20
2023-04-10T11:25:02.327Z,3.38
2023-04-10T11:27:52.852Z,2.88
2023-04-10T11:30:29.054Z,2.80
2023-04-10T11:32:57.470Z,2.58
2023-04-10T11:35:27.202Z,2.10
2023-04-10T11:38:10.900Z,2.60
2023-04-10T11:41:02.450Z,2.88
2023-04-10T11:43:31.194Z,2.53
2023-04-10T11:46:05.630Z,3.15
2023-04-10T11:48:37.303Z,4.40
2023-04-10T11:51:10.850Z,2.80
2023-04-10T11:53:39.864Z,2.72
2023-04-10T11:56:18.373Z,2.55
2023-04-10T11:58:46.737Z,2.65
2023-04-10T12:01:15.543Z,2.60
2023-04-10T12:03:46.111Z,2.53
2023-04-10T12:06:16.589Z,2.80
2023-04-10T12:08:49.226Z,2.83
2023-04-10T12:11:22.416Z,3.00
2023-04-10T12:13:54.027Z,2.33
2023-04-10T12:16:22.689Z,2.33
2023-04-10T12:18:52.562Z,2.85
2023-04-10T12:21:21.857Z,3.00
2023-04-10T12:23:50.123Z,2.65
2023-04-10T12:26:20.540Z,2.58
2023-04-10T12:28:54.656Z,2.40
2023-04-10T12:31:29.289Z,2.65
2023-04-10T12:33:58.462Z,2.55
2023-04-10T12:36:29.751Z,2.70
2023-04-10T12:38:59.261Z,2.35
2023-04-10T12:41:31.450Z,2.72
2023-04-10T12:44:11.487Z,2.30
2023-04-10T12:46:40.581Z,2.75
2023-04-10T12:49:13.753Z,3.10
2023-04-10T12:51:47.381Z,2.53
2023-04-10T12:54:33.202Z,2.28
2023-04-10T12:57:04.456Z,2.33
2023-04-10T12:59:33.662Z,2.38
2023-04-10T13:02:01.951Z,2.25
2023-04-10T13:04:32.778Z,2.50
2023-04-10T13:07:01.082Z,2.60
2023-04-10T13:09:29.236Z,3.00
2023-04-10T13:11:57.810Z,3.00
2023-04-10T13:14:27.464Z,2.70
2023-04-10T13:16:55.570Z,2.67
2023-04-10T13:19:23.724Z,2.63
2023-04-10T13:21:51.960Z,2.60
2023-04-10T13:24:20.208Z,2.58
2023-04-10T13:26:48.762Z,2.33
2023-04-10T13:29:16.880Z,2.28
2023-04-10T13:31:46.327Z,3.00
2023-04-10T13:34:14.544Z,2.50
2023-04-10T13:36:42.790Z,2.92
2023-04-10T13:39:11.094Z,2.40
2023-04-10T13:41:41.260Z,2.20
2023-04-10T13:44:09.401Z,2.35
2023-04-10T13:46:37.792Z,2.30
2023-04-10T13:49:07.334Z,2.47
2023-04-10T13:51:35.571Z,2.30
2023-04-10T13:54:04.817Z,2.38
2023-04-10T13:56:33.139Z,2.47
2023-04-10T13:59:01.319Z,2.90
2023-04-10T14:01:29.587Z,2.95
2023-04-10T14:03:57.927Z,2.47
2023-04-10T14:06:28.181Z,2.67
2023-04-10T14:08:56.702Z,2.08
2023-04-10T14:11:24.991Z,3.17
2023-04-10T14:13:53.328Z,2.65
2023-04-10T14:16:21.597Z,2.90
2023-04-10T14:18:49.932Z,2.47
2023-04-10T14:21:20.497Z,2.70
2023-04-10T14:23:50.325Z,2.65
2023-04-10T14:26:18.562Z,2.70
2023-04-10T14:28:46.747Z,2.63
2023-04-10T14:31:14.883Z,3.10
2023-04-10T14:33:43.060Z,2.38
2023-04-10T14:36:11.611Z,2.60
2023-04-10T14:38:39.846Z,2.50
2023-04-10T14:41:09.962Z,2.78
2023-04-10T14:43:43.089Z,2.47
2023-04-10T14:46:12.552Z,2.53
2023-04-10T14:48:40.890Z,2.63
2023-04-10T14:51:12.955Z,2.40
2023-04-10T14:53:41.144Z,2.25
2023-04-10T14:56:15.677Z,2.28
2023-04-10T14:58:44.673Z,2.35
2023-04-10T15:01:13.653Z,2.40
2023-04-10T15:03:48.103Z,2.35
2023-04-10T15:06:16.681Z,2.00
2023-04-10T15:08:44.978Z,2.10
2023-04-10T15:11:14.779Z,2.10
2023-04-10T15:13:45.803Z,2.00
2023-04-10T15:16:14.210Z,2.00
2023-04-10T15:18:42.690Z,2.10
2023-04-10T15:21:11.131Z,2.25
2023-04-10T15:23:39.519Z,2.72
2023-04-10T15:26:15.052Z,2.50
2023-04-10T15:28:47.852Z,2.00
2023-04-10T15:31:16.889Z,2.38
2023-04-10T15:33:48.273Z,2.65
2023-04-10T15:36:19.991Z,2.58
2023-04-10T15:38:51.384Z,2.45
2023-04-10T15:41:21.311Z,2.55
2023-04-10T15:43:50.360Z,2.72
2023-04-10T15:46:19.324Z,2.50
2023-04-10T15:48:47.668Z,2.67
2023-04-10T15:51:16.156Z,2.00
2023-04-10T15:53:44.468Z,2.10
2023-04-10T15:56:15.851Z,1.95
2023-04-10T15:58:45.454Z,2.40
2023-04-10T16:01:16.651Z,2.10
2023-04-10T16:03:45.392Z,2.00
2023-04-10T16:06:13.933Z,2.58
2023-04-10T16:08:42.196Z,2.50
2023-04-10T16:11:10.648Z,3.05
2023-04-10T16:13:41.717Z,3.05
2023-04-10T16:16:16.957Z,2.83
2023-04-10T16:18:46.398Z,4.13
2023-04-10T16:21:15.259Z,3.85
2023-04-10T16:23:49.341Z,3.15
2023-04-10T16:26:18.468Z,3.30
2023-04-10T16:28:46.960Z,3.33
2023-04-10T16:31:16.575Z,3.00
2023-04-10T16:33:57.301Z,2.97
2023-04-10T16:36:27.011Z,2.80
2023-04-10T16:38:58.112Z,2.67
2023-04-10T16:41:26.482Z,2.40
2023-04-10T16:44:07.385Z,2.55
2023-04-10T16:46:39.822Z,2.67
2023-04-10T16:49:14.551Z,2.58
2023-04-10T16:51:44.934Z,2.70
2023-04-10T16:54:16.631Z,2.83
2023-04-10T16:56:55.518Z,2.40
2023-04-10T16:59:30.508Z,2.70
2023-04-10T17:02:00.841Z,2.40
2023-04-10T17:04:41.456Z,2.90
2023-04-10T17:07:14.038Z,2.78
2023-04-10T17:09:53.838Z,2.60
2023-04-10T17:12:22.403Z,2.53
2023-04-10T17:14:56.609Z,2.33
2023-04-10T17:17:28.723Z,2.50
2023-04-10T17:20:01.592Z,2.50
2023-04-10T17:22:30.076Z,2.70
2023-04-10T17:25:01.103Z,2.75
2023-04-10T17:27:29.585Z,2.90
2023-04-10T17:30:00.605Z,2.53
2023-04-10T17:32:54.066Z,2.53
2023-04-10T17:35:22.521Z,2.20
2023-04-10T17:37:54.575Z,2.22
2023-04-10T17:40:25.081Z,2.13
2023-04-10T17:42:53.561Z,1.98
2023-04-10T17:45:22.039Z,1.92
2023-04-10T17:47:51.703Z,2.22
2023-04-10T17:50:20.386Z,2.33
2023-04-10T17:52:48.620Z,2.17
2023-04-10T17:55:20.815Z,2.20
2023-04-10T17:57:49.936Z,2.33
2023-04-10T18:00:22.798Z,2.08
2023-04-10T18:02:57.866Z,1.90
2023-04-10T18:05:26.717Z,1.65
2023-04-10T18:07:54.914Z,1.60
2023-04-10T18:10:51.864Z,1.65
2023-04-10T18:13:34.600Z,1.50
2023-04-10T18:16:43.510Z,1.80
2023-04-10T18:19:29.751Z,1.90
2023-04-10T18:22:14.626Z,2.15
2023-04-10T18:24:52.567Z,2.45
2023-04-10T18:27:24.976Z,2.35
2023-04-10T18:32:44.658Z,5.85
2023-04-10T18:35:20.861Z,2.50
2023-04-10T18:38:09.600Z,2.90
2023-04-10T18:41:08.432Z,2.83
2023-04-10T18:43:40.882Z,3.40
2023-04-10T18:49:50.205Z,3.53
2023-04-10T18:52:58.509Z,3.20
2023-04-10T18:56:37.697Z,4.13
2023-04-10T19:00:12.385Z,3.13
2023-04-10T19:02:55.643Z,3.67
2023-04-10T19:05:29.620Z,3.25
2023-04-10T19:08:29.709Z,3.58
2023-04-10T19:11:20.415Z,3.45
2023-04-10T19:14:10.516Z,3.10
2023-04-10T19:16:57.437Z,3.42
2023-04-10T19:19:39.209Z,3.85
2023-04-10T19:22:16.243Z,4.18
2023-04-10T19:25:17.256Z,4.78
2023-04-10T19:27:52.185Z,5.43
2023-04-10T19:30:26.175Z,5.75
2023-04-10T19:32:57.002Z,5.35
2023-04-10T19:35:32.904Z,5.65
2023-04-10T19:38:08.537Z,6.32
2023-04-10T19:40:52.296Z,7.30
2023-04-10T19:43:27.815Z,6.30
2023-04-10T19:46:06.427Z,7.03
2023-04-10T19:49:01.506Z,6.13
2023-04-10T19:51:39.881Z,7.00
2023-04-10T19:54:11.274Z,7.95
2023-04-10T19:56:50.445Z,7.28
2023-04-10T19:59:18.913Z,6.88
2023-04-10T20:01:47.351Z,5.88
2023-04-10T20:04:16.110Z,5.13
2023-04-10T20:06:44.596Z,4.63
2023-04-10T20:09:12.983Z,3.90
2023-04-10T20:11:42.553Z,2.90
2023-04-10T20:14:11.584Z,2.90
2023-04-10T20:16:40.964Z,2.58
2023-04-10T20:19:09.244Z,3.65
2023-04-10T20:21:37.775Z,2.90
2023-04-10T20:24:06.372Z,2.22
2023-04-10T20:26:34.601Z,11.52
2023-04-10T20:29:04.316Z,1.98
2023-04-10T20:31:34.140Z,2.08
2023-04-10T20:34:03.009Z,1.80
2023-04-10T20:36:32.289Z,1.63
2023-04-10T20:39:00.586Z,2.30
2023-04-10T20:41:28.934Z,2.08
2023-04-10T20:43:58.398Z,1.80
2023-04-10T20:46:27.992Z,1.60
2023-04-10T20:48:59.103Z,1.67
2023-04-10T20:51:28.558Z,2.33
2023-04-10T20:53:56.717Z,3.00
2023-04-10T20:56:32.886Z,3.00
2023-04-10T20:59:04.895Z,3.03
2023-04-10T21:01:35.626Z,3.20
2023-04-10T21:04:04.094Z,3.10
2023-04-10T21:06:34.049Z,2.28
2023-04-10T21:09:02.288Z,2.78
2023-04-10T21:11:30.505Z,2.75
2023-04-10T21:13:59.107Z,2.35
2023-04-10T21:16:27.450Z,2.15
2023-04-10T21:18:56.992Z,2.40
2023-04-10T21:21:25.814Z,2.35
2023-04-10T21:23:54.597Z,1.85
2023-04-10T21:26:27.372Z,1.60
2023-04-10T21:28:55.807Z,1.85
2023-04-10T21:31:24.290Z,2.28
2023-04-10T21:33:52.474Z,2.42
2023-04-10T21:36:22.048Z,2.15
2023-04-10T21:38:50.493Z,1.40
2023-04-10T21:41:21.240Z,1.48
2023-04-10T21:43:49.876Z,1.45
2023-04-10T21:46:18.326Z,1.65
2023-04-10T21:48:46.690Z,1.60
2023-04-10T21:51:16.262Z,1.00
2023-04-10T21:53:45.844Z,1.63
2023-04-10T21:56:14.281Z,1.27
2023-04-10T21:58:42.539Z,1.63
2023-04-10T22:01:11.041Z,1.17
2023-04-10T22:03:39.582Z,1.58
2023-04-10T22:06:08.800Z,1.60
2023-04-10T22:08:38.172Z,1.20
2023-04-10T22:11:08.684Z,1.90
2023-04-10T22:13:36.935Z,1.00
2023-04-10T22:16:06.126Z,1.55
2023-04-10T22:18:34.332Z,1.52
2023-04-10T22:21:02.560Z,1.15
2023-04-10T22:23:30.780Z,1.65
2023-04-10T22:26:00.802Z,1.63
2023-04-10T22:28:30.371Z,1.70
2023-04-10T22:30:58.658Z,1.50
2023-04-10T22:33:27.059Z,1.10
2023-04-10T22:35:55.264Z,1.40
2023-04-10T22:38:23.496Z,1.45
2023-04-10T22:40:51.637Z,1.30
2023-04-10T22:43:19.940Z,1.60
2023-04-10T22:45:49.702Z,1.50
2023-04-10T22:48:18.274Z,1.50
2023-04-10T22:50:46.756Z,1.73
2023-04-10T22:53:15.056Z,1.70
2023-04-10T22:55:43.224Z,2.17
2023-04-10T22:58:11.796Z,2.15
2023-04-10T23:00:40.181Z,3.63
2023-04-10T23:03:09.968Z,2.83
2023-04-10T23:05:38.360Z,2.10
2023-04-10T23:08:06.733Z,2.65
2023-04-10T23:10:34.940Z,2.55
2023-04-10T23:13:03.130Z,2.40
2023-04-10T23:15:31.467Z,2.45
2023-04-10T23:17:59.658Z,3.25
2023-04-10T23:20:29.463Z,2.45
2023-04-10T23:22:57.825Z,3.33
2023-04-10T23:25:26.428Z,2.38
2023-04-10T23:27:55.362Z,2.65
2023-04-10T23:30:23.618Z,2.60
2023-04-10T23:32:51.809Z,2.75
2023-04-10T23:35:20.099Z,2.28
2023-04-10T23:37:51.611Z,2.08
2023-04-10T23:40:20.588Z,2.05
2023-04-10T23:42:48.724Z,2.20
2023-04-10T23:45:16.907Z,2.63
2023-04-10T23:47:45.186Z,2.35
2023-04-10T23:50:13.337Z,2.67
2023-04-10T23:52:41.523Z,2.95
2023-04-10T23:55:11.388Z,2.70
2023-04-10T23:57:39.630Z,2.65
